sensor_id;sensor_type;location;lat;lon;timestamp;P1;durP1;ratioP1;P2;durP2;ratioP2
84144;SDS011;74264;48.988;12.040;2024-01-11T00:02:21;52.03;;;22.95;;
84144;SDS011;74264;48.988;12.040;2024-01-11T00:04:46;62.30;;;26.52;;
84144;SDS011;74264;48.988;12.040;2024-01-11T00:07:12;62.40;;;30.27;;
84144;SDS011;74264;48.988;12.040;2024-01-11T00:09:41;73.85;;;30.33;;
84144;SDS011;74264;48.988;12.040;2024-01-11T00:12:08;69.43;;;27.67;;
84144;SDS011;74264;48.988;12.040;2024-01-11T00:14:34;59.67;;;28.77;;
84144;SDS011;74264;48.988;12.040;2024-01-11T00:17:00;59.30;;;28.33;;
84144;SDS011;74264;48.988;12.040;2024-01-11T00:19:26;62.15;;;26.13;;
84144;SDS011;74264;48.988;12.040;2024-01-11T00:21:51;63.80;;;28.90;;
84144;SDS011;74264;48.988;12.040;2024-01-11T00:24:17;64.47;;;26.67;;
84144;SDS011;74264;48.988;12.040;2024-01-11T00:26:42;56.20;;;24.63;;
84144;SDS011;74264;48.988;12.040;2024-01-11T00:29:08;53.08;;;24.83;;
84144;SDS011;74264;48.988;12.040;2024-01-11T00:31:34;52.10;;;24.15;;
84144;SDS011;74264;48.988;12.040;2024-01-11T00:34:00;50.45;;;24.05;;
84144;SDS011;74264;48.988;12.040;2024-01-11T00:36:26;63.60;;;26.67;;
84144;SDS011;74264;48.988;12.040;2024-01-11T00:38:53;54.25;;;23.60;;
84144;SDS011;74264;48.988;12.040;2024-01-11T00:41:19;59.70;;;26.17;;
84144;SDS011;74264;48.988;12.040;2024-01-11T00:43:45;61.97;;;29.10;;
84144;SDS011;74264;48.988;12.040;2024-01-11T00:46:11;62.42;;;25.75;;
84144;SDS011;74264;48.988;12.040;2024-01-11T00:48:36;67.63;;;27.88;;
84144;SDS011;74264;48.988;12.040;2024-01-11T00:51:05;59.78;;;26.83;;
84144;SDS011;74264;48.988;12.040;2024-01-11T00:53:31;61.85;;;27.60;;
84144;SDS011;74264;48.988;12.040;2024-01-11T00:55:58;59.75;;;28.67;;
84144;SDS011;74264;48.988;12.040;2024-01-11T00:58:24;53.80;;;24.98;;
84144;SDS011;74264;48.988;12.040;2024-01-11T01:00:50;58.70;;;26.83;;
84144;SDS011;74264;48.988;12.040;2024-01-11T01:03:18;60.85;;;27.45;;
84144;SDS011;74264;48.988;12.040;2024-01-11T01:05:46;58.10;;;26.73;;
84144;SDS011;74264;48.988;12.040;2024-01-11T01:08:12;60.25;;;25.50;;
84144;SDS011;74264;48.988;12.040;2024-01-11T01:10:38;60.95;;;26.88;;
84144;SDS011;74264;48.988;12.040;2024-01-11T01:13:04;60.13;;;25.60;;
84144;SDS011;74264;48.988;12.040;2024-01-11T01:15:29;75.40;;;24.88;;
84144;SDS011;74264;48.988;12.040;2024-01-11T01:17:55;60.95;;;26.15;;
84144;SDS011;74264;48.988;12.040;2024-01-11T01:20:20;59.95;;;27.05;;
84144;SDS011;74264;48.988;12.040;2024-01-11T01:22:47;68.75;;;27.77;;
84144;SDS011;74264;48.988;12.040;2024-01-11T01:25:12;51.45;;;24.00;;
84144;SDS011;74264;48.988;12.040;2024-01-11T01:27:38;53.05;;;24.08;;
84144;SDS011;74264;48.988;12.040;2024-01-11T01:30:04;50.70;;;22.88;;
84144;SDS011;74264;48.988;12.040;2024-01-11T01:32:30;57.42;;;22.88;;
84144;SDS011;74264;48.988;12.040;2024-01-11T01:34:55;45.15;;;20.88;;
84144;SDS011;74264;48.988;12.040;2024-01-11T01:37:21;48.92;;;24.02;;
84144;SDS011;74264;48.988;12.040;2024-01-11T01:39:47;60.35;;;26.10;;
84144;SDS011;74264;48.988;12.040;2024-01-11T01:42:12;54.40;;;25.73;;
84144;SDS011;74264;48.988;12.040;2024-01-11T01:44:38;61.13;;;23.63;;
84144;SDS011;74264;48.988;12.040;2024-01-11T01:47:06;64.63;;;28.48;;
84144;SDS011;74264;48.988;12.040;2024-01-11T01:49:34;61.00;;;26.77;;
84144;SDS011;74264;48.988;12.040;2024-01-11T01:52:02;65.88;;;28.15;;
84144;SDS011;74264;48.988;12.040;2024-01-11T01:54:28;57.42;;;26.15;;
84144;SDS011;74264;48.988;12.040;2024-01-11T01:56:56;61.67;;;26.17;;
84144;SDS011;74264;48.988;12.040;2024-01-11T01:59:22;61.53;;;27.63;;
84144;SDS011;74264;48.988;12.040;2024-01-11T02:01:50;57.85;;;25.23;;
84144;SDS011;74264;48.988;12.040;2024-01-11T02:04:16;63.60;;;27.45;;
84144;SDS011;74264;48.988;12.040;2024-01-11T02:06:42;62.03;;;25.15;;
84144;SDS011;74264;48.988;12.040;2024-01-11T02:09:10;55.40;;;24.25;;
84144;SDS011;74264;48.988;12.040;2024-01-11T02:11:36;68.20;;;26.95;;
84144;SDS011;74264;48.988;12.040;2024-01-11T02:14:02;59.17;;;26.65;;
84144;SDS011;74264;48.988;12.040;2024-01-11T02:16:28;64.07;;;25.48;;
84144;SDS011;74264;48.988;12.040;2024-01-11T02:18:54;55.85;;;23.75;;
84144;SDS011;74264;48.988;12.040;2024-01-11T02:21:20;54.15;;;23.48;;
84144;SDS011;74264;48.988;12.040;2024-01-11T02:24:21;58.75;;;24.00;;
84144;SDS011;74264;48.988;12.040;2024-01-11T02:26:59;52.13;;;24.63;;
84144;SDS011;74264;48.988;12.040;2024-01-11T02:29:29;52.70;;;23.33;;
84144;SDS011;74264;48.988;12.040;2024-01-11T02:31:55;54.95;;;24.55;;
84144;SDS011;74264;48.988;12.040;2024-01-11T02:34:24;46.83;;;21.58;;
84144;SDS011;74264;48.988;12.040;2024-01-11T02:36:52;52.63;;;21.90;;
84144;SDS011;74264;48.988;12.040;2024-01-11T02:39:18;51.63;;;24.13;;
84144;SDS011;74264;48.988;12.040;2024-01-11T02:41:45;62.38;;;26.83;;
84144;SDS011;74264;48.988;12.040;2024-01-11T02:44:12;55.92;;;24.73;;
84144;SDS011;74264;48.988;12.040;2024-01-11T02:46:38;51.35;;;24.52;;
84144;SDS011;74264;48.988;12.040;2024-01-11T02:49:03;50.50;;;23.25;;
84144;SDS011;74264;48.988;12.040;2024-01-11T02:51:29;51.85;;;23.88;;
84144;SDS011;74264;48.988;12.040;2024-01-11T02:53:54;56.13;;;23.95;;
84144;SDS011;74264;48.988;12.040;2024-01-11T02:56:20;54.35;;;23.58;;
84144;SDS011;74264;48.988;12.040;2024-01-11T02:58:45;69.00;;;26.83;;
84144;SDS011;74264;48.988;12.040;2024-01-11T03:01:11;59.58;;;24.38;;
84144;SDS011;74264;48.988;12.040;2024-01-11T03:03:36;57.58;;;24.83;;
84144;SDS011;74264;48.988;12.040;2024-01-11T03:06:02;56.40;;;24.02;;
84144;SDS011;74264;48.988;12.040;2024-01-11T03:08:28;59.90;;;25.40;;
84144;SDS011;74264;48.988;12.040;2024-01-11T03:10:54;58.42;;;24.52;;
84144;SDS011;74264;48.988;12.040;2024-01-11T03:13:20;58.70;;;24.73;;
84144;SDS011;74264;48.988;12.040;2024-01-11T03:15:45;57.55;;;22.70;;
84144;SDS011;74264;48.988;12.040;2024-01-11T03:18:11;58.50;;;26.52;;
84144;SDS011;74264;48.988;12.040;2024-01-11T03:20:36;66.07;;;28.15;;
84144;SDS011;74264;48.988;12.040;2024-01-11T03:23:02;66.00;;;28.33;;
84144;SDS011;74264;48.988;12.040;2024-01-11T03:25:29;60.10;;;27.05;;
84144;SDS011;74264;48.988;12.040;2024-01-11T03:27:54;59.85;;;27.00;;
84144;SDS011;74264;48.988;12.040;2024-01-11T03:30:20;62.72;;;25.55;;
84144;SDS011;74264;48.988;12.040;2024-01-11T03:32:45;53.08;;;21.35;;
84144;SDS011;74264;48.988;12.040;2024-01-11T03:35:11;57.03;;;23.23;;
84144;SDS011;74264;48.988;12.040;2024-01-11T03:37:37;58.20;;;24.77;;
84144;SDS011;74264;48.988;12.040;2024-01-11T03:40:02;58.30;;;26.48;;
84144;SDS011;74264;48.988;12.040;2024-01-11T03:42:29;78.22;;;32.00;;
84144;SDS011;74264;48.988;12.040;2024-01-11T03:44:54;63.97;;;27.25;;
84144;SDS011;74264;48.988;12.040;2024-01-11T03:47:20;62.58;;;27.83;;
84144;SDS011;74264;48.988;12.040;2024-01-11T03:49:46;59.22;;;28.60;;
84144;SDS011;74264;48.988;12.040;2024-01-11T03:52:11;63.97;;;25.73;;
84144;SDS011;74264;48.988;12.040;2024-01-11T03:54:37;75.35;;;30.65;;
84144;SDS011;74264;48.988;12.040;2024-01-11T03:57:02;61.28;;;27.38;;
84144;SDS011;74264;48.988;12.040;2024-01-11T03:59:28;63.47;;;28.55;;
84144;SDS011;74264;48.988;12.040;2024-01-11T04:01:55;63.15;;;27.13;;
84144;SDS011;74264;48.988;12.040;2024-01-11T04:04:21;61.33;;;26.10;;
84144;SDS011;74264;48.988;12.040;2024-01-11T04:06:47;63.17;;;28.35;;
84144;SDS011;74264;48.988;12.040;2024-01-11T04:09:13;62.08;;;29.35;;
84144;SDS011;74264;48.988;12.040;2024-01-11T04:11:39;63.38;;;30.05;;
84144;SDS011;74264;48.988;12.040;2024-01-11T04:14:04;63.55;;;26.77;;
84144;SDS011;74264;48.988;12.040;2024-01-11T04:16:30;62.92;;;25.65;;
84144;SDS011;74264;48.988;12.040;2024-01-11T04:18:55;61.67;;;24.80;;
84144;SDS011;74264;48.988;12.040;2024-01-11T04:21:24;57.60;;;24.63;;
84144;SDS011;74264;48.988;12.040;2024-01-11T04:23:53;65.88;;;25.20;;
84144;SDS011;74264;48.988;12.040;2024-01-11T04:26:20;68.50;;;26.40;;
84144;SDS011;74264;48.988;12.040;2024-01-11T04:28:46;52.72;;;24.25;;
84144;SDS011;74264;48.988;12.040;2024-01-11T04:31:12;58.33;;;26.15;;
84144;SDS011;74264;48.988;12.040;2024-01-11T04:33:41;59.35;;;27.42;;
84144;SDS011;74264;48.988;12.040;2024-01-11T04:36:10;58.63;;;26.15;;
84144;SDS011;74264;48.988;12.040;2024-01-11T04:38:36;63.20;;;23.95;;
84144;SDS011;74264;48.988;12.040;2024-01-11T04:41:08;65.90;;;26.27;;
84144;SDS011;74264;48.988;12.040;2024-01-11T04:43:53;55.63;;;24.50;;
84144;SDS011;74264;48.988;12.040;2024-01-11T04:46:19;62.53;;;25.10;;
84144;SDS011;74264;48.988;12.040;2024-01-11T04:48:46;71.45;;;26.48;;
84144;SDS011;74264;48.988;12.040;2024-01-11T04:51:14;64.53;;;27.77;;
84144;SDS011;74264;48.988;12.040;2024-01-11T04:53:41;65.13;;;25.90;;
84144;SDS011;74264;48.988;12.040;2024-01-11T04:56:08;74.25;;;29.23;;
84144;SDS011;74264;48.988;12.040;2024-01-11T04:58:35;62.83;;;27.55;;
84144;SDS011;74264;48.988;12.040;2024-01-11T05:01:03;60.25;;;26.23;;
84144;SDS011;74264;48.988;12.040;2024-01-11T05:03:30;67.05;;;26.05;;
84144;SDS011;74264;48.988;12.040;2024-01-11T05:05:56;61.83;;;25.42;;
84144;SDS011;74264;48.988;12.040;2024-01-11T05:08:25;56.80;;;26.15;;
84144;SDS011;74264;48.988;12.040;2024-01-11T05:10:52;68.00;;;26.98;;
84144;SDS011;74264;48.988;12.040;2024-01-11T05:13:17;62.95;;;27.65;;
84144;SDS011;74264;48.988;12.040;2024-01-11T05:15:43;70.13;;;26.42;;
84144;SDS011;74264;48.988;12.040;2024-01-11T05:18:09;58.00;;;25.90;;
84144;SDS011;74264;48.988;12.040;2024-01-11T05:20:35;65.03;;;27.40;;
84144;SDS011;74264;48.988;12.040;2024-01-11T05:23:01;74.20;;;30.90;;
84144;SDS011;74264;48.988;12.040;2024-01-11T05:25:27;67.13;;;28.48;;
84144;SDS011;74264;48.988;12.040;2024-01-11T05:27:52;75.97;;;30.45;;
84144;SDS011;74264;48.988;12.040;2024-01-11T05:30:18;57.83;;;25.33;;
84144;SDS011;74264;48.988;12.040;2024-01-11T05:32:44;62.97;;;27.30;;
84144;SDS011;74264;48.988;12.040;2024-01-11T05:35:09;61.35;;;26.60;;
84144;SDS011;74264;48.988;12.040;2024-01-11T05:37:35;64.15;;;26.75;;
84144;SDS011;74264;48.988;12.040;2024-01-11T05:40:01;52.47;;;24.58;;
84144;SDS011;74264;48.988;12.040;2024-01-11T05:42:28;60.22;;;27.85;;
84144;SDS011;74264;48.988;12.040;2024-01-11T05:44:54;63.63;;;26.25;;
84144;SDS011;74264;48.988;12.040;2024-01-11T05:47:20;63.10;;;26.42;;
84144;SDS011;74264;48.988;12.040;2024-01-11T05:49:45;54.20;;;23.70;;
84144;SDS011;74264;48.988;12.040;2024-01-11T05:52:11;66.55;;;27.38;;
84144;SDS011;74264;48.988;12.040;2024-01-11T05:54:37;61.85;;;26.30;;
84144;SDS011;74264;48.988;12.040;2024-01-11T05:57:02;63.00;;;27.45;;
84144;SDS011;74264;48.988;12.040;2024-01-11T05:59:28;52.08;;;24.65;;
84144;SDS011;74264;48.988;12.040;2024-01-11T06:01:53;65.60;;;26.55;;
84144;SDS011;74264;48.988;12.040;2024-01-11T06:04:19;67.05;;;30.58;;
84144;SDS011;74264;48.988;12.040;2024-01-11T06:06:45;72.82;;;26.15;;
84144;SDS011;74264;48.988;12.040;2024-01-11T06:09:10;70.07;;;26.00;;
84144;SDS011;74264;48.988;12.040;2024-01-11T06:11:36;63.10;;;25.77;;
84144;SDS011;74264;48.988;12.040;2024-01-11T06:14:01;74.70;;;29.70;;
84144;SDS011;74264;48.988;12.040;2024-01-11T06:16:28;68.70;;;30.38;;
84144;SDS011;74264;48.988;12.040;2024-01-11T06:18:54;73.85;;;29.35;;
84144;SDS011;74264;48.988;12.040;2024-01-11T06:21:19;90.13;;;35.95;;
84144;SDS011;74264;48.988;12.040;2024-01-11T06:23:45;83.93;;;32.55;;
84144;SDS011;74264;48.988;12.040;2024-01-11T06:26:11;85.07;;;29.92;;
84144;SDS011;74264;48.988;12.040;2024-01-11T06:28:36;69.70;;;30.40;;
84144;SDS011;74264;48.988;12.040;2024-01-11T06:31:02;74.80;;;30.70;;
84144;SDS011;74264;48.988;12.040;2024-01-11T06:33:28;63.65;;;28.88;;
84144;SDS011;74264;48.988;12.040;2024-01-11T06:35:54;71.32;;;31.83;;
84144;SDS011;74264;48.988;12.040;2024-01-11T06:38:21;67.60;;;29.63;;
84144;SDS011;74264;48.988;12.040;2024-01-11T06:40:47;67.13;;;27.75;;
84144;SDS011;74264;48.988;12.040;2024-01-11T06:43:14;61.35;;;26.42;;
84144;SDS011;74264;48.988;12.040;2024-01-11T06:45:42;54.92;;;25.23;;
84144;SDS011;74264;48.988;12.040;2024-01-11T06:48:10;63.38;;;26.98;;
84144;SDS011;74264;48.988;12.040;2024-01-11T06:50:36;66.15;;;27.58;;
84144;SDS011;74264;48.988;12.040;2024-01-11T06:53:01;61.22;;;26.50;;
84144;SDS011;74264;48.988;12.040;2024-01-11T06:55:27;68.25;;;29.15;;
84144;SDS011;74264;48.988;12.040;2024-01-11T06:57:53;74.93;;;29.98;;
84144;SDS011;74264;48.988;12.040;2024-01-11T07:00:18;77.15;;;30.83;;
84144;SDS011;74264;48.988;12.040;2024-01-11T07:02:44;54.42;;;24.25;;
84144;SDS011;74264;48.988;12.040;2024-01-11T07:05:10;51.78;;;22.88;;
84144;SDS011;74264;48.988;12.040;2024-01-11T07:07:35;61.50;;;24.38;;
84144;SDS011;74264;48.988;12.040;2024-01-11T07:10:01;61.78;;;23.73;;
84144;SDS011;74264;48.988;12.040;2024-01-11T07:12:27;59.08;;;23.92;;
84144;SDS011;74264;48.988;12.040;2024-01-11T07:14:52;51.58;;;24.85;;
84144;SDS011;74264;48.988;12.040;2024-01-11T07:17:18;59.53;;;25.17;;
84144;SDS011;74264;48.988;12.040;2024-01-11T07:19:43;71.70;;;27.02;;
84144;SDS011;74264;48.988;12.040;2024-01-11T07:22:09;65.82;;;27.95;;
84144;SDS011;74264;48.988;12.040;2024-01-11T07:24:34;63.47;;;26.70;;
84144;SDS011;74264;48.988;12.040;2024-01-11T07:27:04;56.05;;;24.02;;
84144;SDS011;74264;48.988;12.040;2024-01-11T07:29:35;60.47;;;26.00;;
84144;SDS011;74264;48.988;12.040;2024-01-11T07:32:01;64.85;;;25.80;;
84144;SDS011;74264;48.988;12.040;2024-01-11T07:34:29;67.53;;;27.17;;
84144;SDS011;74264;48.988;12.040;2024-01-11T07:36:54;65.13;;;27.25;;
84144;SDS011;74264;48.988;12.040;2024-01-11T07:39:20;74.40;;;30.52;;
84144;SDS011;74264;48.988;12.040;2024-01-11T07:41:48;53.38;;;22.35;;
84144;SDS011;74264;48.988;12.040;2024-01-11T07:44:14;64.55;;;27.75;;
84144;SDS011;74264;48.988;12.040;2024-01-11T07:46:40;65.85;;;26.83;;
84144;SDS011;74264;48.988;12.040;2024-01-11T07:49:05;58.17;;;25.75;;
84144;SDS011;74264;48.988;12.040;2024-01-11T07:51:32;60.08;;;25.73;;
84144;SDS011;74264;48.988;12.040;2024-01-11T07:53:59;66.45;;;27.33;;
84144;SDS011;74264;48.988;12.040;2024-01-11T07:56:25;56.22;;;25.55;;
84144;SDS011;74264;48.988;12.040;2024-01-11T07:58:51;54.90;;;25.33;;
84144;SDS011;74264;48.988;12.040;2024-01-11T08:01:16;61.38;;;26.27;;
84144;SDS011;74264;48.988;12.040;2024-01-11T08:03:42;58.30;;;25.83;;
84144;SDS011;74264;48.988;12.040;2024-01-11T08:06:10;67.45;;;26.05;;
84144;SDS011;74264;48.988;12.040;2024-01-11T08:08:37;65.97;;;27.63;;
84144;SDS011;74264;48.988;12.040;2024-01-11T08:11:04;65.95;;;26.90;;
84144;SDS011;74264;48.988;12.040;2024-01-11T08:13:30;54.80;;;25.23;;
84144;SDS011;74264;48.988;12.040;2024-01-11T08:15:56;60.10;;;26.20;;
84144;SDS011;74264;48.988;12.040;2024-01-11T08:18:23;63.88;;;26.20;;
84144;SDS011;74264;48.988;12.040;2024-01-11T08:20:49;69.75;;;28.92;;
84144;SDS011;74264;48.988;12.040;2024-01-11T08:23:14;67.85;;;27.40;;
84144;SDS011;74264;48.988;12.040;2024-01-11T08:25:40;64.40;;;28.13;;
84144;SDS011;74264;48.988;12.040;2024-01-11T08:28:06;67.10;;;31.60;;
84144;SDS011;74264;48.988;12.040;2024-01-11T08:30:32;64.57;;;27.90;;
84144;SDS011;74264;48.988;12.040;2024-01-11T08:32:57;62.60;;;27.08;;
84144;SDS011;74264;48.988;12.040;2024-01-11T08:35:23;56.25;;;28.58;;
84144;SDS011;74264;48.988;12.040;2024-01-11T08:37:49;54.17;;;25.00;;
84144;SDS011;74264;48.988;12.040;2024-01-11T08:40:15;58.50;;;26.20;;
84144;SDS011;74264;48.988;12.040;2024-01-11T08:42:41;62.97;;;26.35;;
84144;SDS011;74264;48.988;12.040;2024-01-11T08:45:08;53.25;;;24.88;;
84144;SDS011;74264;48.988;12.040;2024-01-11T08:47:34;58.88;;;29.55;;
84144;SDS011;74264;48.988;12.040;2024-01-11T08:50:00;57.83;;;26.55;;
84144;SDS011;74264;48.988;12.040;2024-01-11T08:52:26;66.97;;;29.13;;
84144;SDS011;74264;48.988;12.040;2024-01-11T08:54:52;60.53;;;26.63;;
84144;SDS011;74264;48.988;12.040;2024-01-11T08:57:17;56.00;;;27.80;;
84144;SDS011;74264;48.988;12.040;2024-01-11T08:59:43;56.25;;;25.92;;
84144;SDS011;74264;48.988;12.040;2024-01-11T09:02:09;56.30;;;27.23;;
84144;SDS011;74264;48.988;12.040;2024-01-11T09:04:36;59.80;;;27.23;;
84144;SDS011;74264;48.988;12.040;2024-01-11T09:07:01;57.05;;;27.55;;
84144;SDS011;74264;48.988;12.040;2024-01-11T09:09:27;57.92;;;27.20;;
84144;SDS011;74264;48.988;12.040;2024-01-11T09:11:53;63.25;;;27.50;;
84144;SDS011;74264;48.988;12.040;2024-01-11T09:14:18;58.90;;;28.65;;
84144;SDS011;74264;48.988;12.040;2024-01-11T09:16:44;62.75;;;29.20;;
84144;SDS011;74264;48.988;12.040;2024-01-11T09:19:11;61.50;;;28.90;;
84144;SDS011;74264;48.988;12.040;2024-01-11T09:21:37;71.13;;;24.80;;
84144;SDS011;74264;48.988;12.040;2024-01-11T09:24:03;56.83;;;27.02;;
84144;SDS011;74264;48.988;12.040;2024-01-11T09:26:28;64.43;;;32.88;;
84144;SDS011;74264;48.988;12.040;2024-01-11T09:28:54;58.47;;;27.23;;
84144;SDS011;74264;48.988;12.040;2024-01-11T09:31:19;58.25;;;27.90;;
84144;SDS011;74264;48.988;12.040;2024-01-11T09:33:45;58.20;;;25.50;;
84144;SDS011;74264;48.988;12.040;2024-01-11T09:36:12;54.70;;;25.65;;
84144;SDS011;74264;48.988;12.040;2024-01-11T09:38:38;60.75;;;26.40;;
84144;SDS011;74264;48.988;12.040;2024-01-11T09:43:34;62.70;;;27.45;;
84144;SDS011;74264;48.988;12.040;2024-01-11T09:46:03;55.53;;;25.30;;
84144;SDS011;74264;48.988;12.040;2024-01-11T09:48:34;58.70;;;26.45;;
84144;SDS011;74264;48.988;12.040;2024-01-11T09:51:04;58.40;;;27.30;;
84144;SDS011;74264;48.988;12.040;2024-01-11T09:53:33;61.90;;;27.13;;
84144;SDS011;74264;48.988;12.040;2024-01-11T09:56:02;54.72;;;26.15;;
84144;SDS011;74264;48.988;12.040;2024-01-11T09:58:34;54.60;;;25.50;;
84144;SDS011;74264;48.988;12.040;2024-01-11T10:01:02;64.13;;;27.60;;
84144;SDS011;74264;48.988;12.040;2024-01-11T10:03:28;56.30;;;25.98;;
84144;SDS011;74264;48.988;12.040;2024-01-11T10:05:57;55.05;;;26.33;;
84144;SDS011;74264;48.988;12.040;2024-01-11T10:08:24;61.78;;;29.17;;
84144;SDS011;74264;48.988;12.040;2024-01-11T10:10:51;49.38;;;25.25;;
84144;SDS011;74264;48.988;12.040;2024-01-11T10:13:16;59.10;;;27.00;;
84144;SDS011;74264;48.988;12.040;2024-01-11T10:15:42;56.03;;;25.77;;
84144;SDS011;74264;48.988;12.040;2024-01-11T10:18:09;61.55;;;27.20;;
84144;SDS011;74264;48.988;12.040;2024-01-11T10:20:35;53.55;;;27.00;;
84144;SDS011;74264;48.988;12.040;2024-01-11T10:23:02;54.63;;;25.00;;
84144;SDS011;74264;48.988;12.040;2024-01-11T10:25:27;59.47;;;27.48;;
84144;SDS011;74264;48.988;12.040;2024-01-11T10:27:54;56.38;;;27.70;;
84144;SDS011;74264;48.988;12.040;2024-01-11T10:30:19;57.83;;;25.33;;
84144;SDS011;74264;48.988;12.040;2024-01-11T10:32:47;55.97;;;26.60;;
84144;SDS011;74264;48.988;12.040;2024-01-11T10:35:14;55.72;;;25.90;;
84144;SDS011;74264;48.988;12.040;2024-01-11T10:37:42;59.53;;;25.35;;
84144;SDS011;74264;48.988;12.040;2024-01-11T10:40:08;46.72;;;23.00;;
84144;SDS011;74264;48.988;12.040;2024-01-11T10:42:42;55.85;;;24.85;;
84144;SDS011;74264;48.988;12.040;2024-01-11T10:45:14;45.95;;;23.15;;
84144;SDS011;74264;48.988;12.040;2024-01-11T10:47:50;56.67;;;24.85;;
84144;SDS011;74264;48.988;12.040;2024-01-11T10:50:19;53.97;;;24.38;;
84144;SDS011;74264;48.988;12.040;2024-01-11T10:52:52;49.42;;;22.13;;
84144;SDS011;74264;48.988;12.040;2024-01-11T10:55:27;49.17;;;22.88;;
84144;SDS011;74264;48.988;12.040;2024-01-11T10:57:55;44.88;;;22.35;;
84144;SDS011;74264;48.988;12.040;2024-01-11T11:00:23;52.53;;;24.20;;
84144;SDS011;74264;48.988;12.040;2024-01-11T11:02:49;46.83;;;23.45;;
84144;SDS011;74264;48.988;12.040;2024-01-11T11:05:17;48.70;;;25.27;;
84144;SDS011;74264;48.988;12.040;2024-01-11T11:07:46;49.95;;;23.08;;
84144;SDS011;74264;48.988;12.040;2024-01-11T11:10:15;45.58;;;25.02;;
84144;SDS011;74264;48.988;12.040;2024-01-11T11:12:43;49.30;;;23.48;;
84144;SDS011;74264;48.988;12.040;2024-01-11T11:15:12;47.50;;;22.77;;
84144;SDS011;74264;48.988;12.040;2024-01-11T11:17:38;55.15;;;24.30;;
84144;SDS011;74264;48.988;12.040;2024-01-11T11:20:06;53.40;;;23.08;;
84144;SDS011;74264;48.988;12.040;2024-01-11T11:22:33;50.28;;;22.30;;
84144;SDS011;74264;48.988;12.040;2024-01-11T11:25:06;47.33;;;23.77;;
84144;SDS011;74264;48.988;12.040;2024-01-11T11:27:36;44.15;;;22.63;;
84144;SDS011;74264;48.988;12.040;2024-01-11T11:30:03;47.10;;;24.08;;
84144;SDS011;74264;48.988;12.040;2024-01-11T11:32:36;41.03;;;21.30;;
84144;SDS011;74264;48.988;12.040;2024-01-11T11:35:03;52.55;;;24.00;;
84144;SDS011;74264;48.988;12.040;2024-01-11T11:37:30;53.13;;;23.25;;
84144;SDS011;74264;48.988;12.040;2024-01-11T11:39:57;42.75;;;24.05;;
84144;SDS011;74264;48.988;12.040;2024-01-11T11:42:23;45.10;;;22.52;;
84144;SDS011;74264;48.988;12.040;2024-01-11T11:44:50;43.20;;;21.55;;
84144;SDS011;74264;48.988;12.040;2024-01-11T11:47:18;44.22;;;21.92;;
84144;SDS011;74264;48.988;12.040;2024-01-11T11:52:37;44.92;;;21.05;;
84144;SDS011;74264;48.988;12.040;2024-01-11T11:55:03;46.50;;;22.23;;
84144;SDS011;74264;48.988;12.040;2024-01-11T11:57:31;43.42;;;22.17;;
84144;SDS011;74264;48.988;12.040;2024-01-11T11:59:58;39.72;;;20.67;;
84144;SDS011;74264;48.988;12.040;2024-01-11T12:02:24;42.30;;;21.52;;
84144;SDS011;74264;48.988;12.040;2024-01-11T12:04:52;51.20;;;23.50;;
84144;SDS011;74264;48.988;12.040;2024-01-11T12:07:21;42.83;;;21.60;;
84144;SDS011;74264;48.988;12.040;2024-01-11T12:09:49;46.65;;;21.10;;
84144;SDS011;74264;48.988;12.040;2024-01-11T12:12:16;40.40;;;21.90;;
84144;SDS011;74264;48.988;12.040;2024-01-11T12:14:49;39.90;;;21.10;;
84144;SDS011;74264;48.988;12.040;2024-01-11T12:17:15;42.88;;;20.23;;
84144;SDS011;74264;48.988;12.040;2024-01-11T12:19:41;47.10;;;22.42;;
84144;SDS011;74264;48.988;12.040;2024-01-11T12:22:07;39.45;;;21.50;;
84144;SDS011;74264;48.988;12.040;2024-01-11T12:24:33;47.08;;;22.00;;
84144;SDS011;74264;48.988;12.040;2024-01-11T12:26:59;42.08;;;23.33;;
84144;SDS011;74264;48.988;12.040;2024-01-11T12:29:29;42.75;;;24.08;;
84144;SDS011;74264;48.988;12.040;2024-01-11T12:31:58;53.05;;;25.13;;
84144;SDS011;74264;48.988;12.040;2024-01-11T12:34:28;49.10;;;24.60;;
84144;SDS011;74264;48.988;12.040;2024-01-11T12:36:54;44.58;;;22.35;;
84144;SDS011;74264;48.988;12.040;2024-01-11T12:39:20;46.17;;;23.73;;
84144;SDS011;74264;48.988;12.040;2024-01-11T12:41:50;48.40;;;22.30;;
84144;SDS011;74264;48.988;12.040;2024-01-11T12:44:19;41.13;;;21.95;;
84144;SDS011;74264;48.988;12.040;2024-01-11T12:46:48;42.17;;;21.88;;
84144;SDS011;74264;48.988;12.040;2024-01-11T12:49:14;38.22;;;21.15;;
84144;SDS011;74264;48.988;12.040;2024-01-11T12:51:40;37.55;;;19.67;;
84144;SDS011;74264;48.988;12.040;2024-01-11T12:54:12;41.10;;;20.08;;
84144;SDS011;74264;48.988;12.040;2024-01-11T12:56:45;38.35;;;20.38;;
84144;SDS011;74264;48.988;12.040;2024-01-11T12:59:11;37.30;;;19.00;;
84144;SDS011;74264;48.988;12.040;2024-01-11T13:01:39;41.28;;;20.67;;
84144;SDS011;74264;48.988;12.040;2024-01-11T13:04:05;39.85;;;20.65;;
84144;SDS011;74264;48.988;12.040;2024-01-11T13:06:33;34.88;;;20.08;;
84144;SDS011;74264;48.988;12.040;2024-01-11T13:09:00;45.38;;;21.83;;
84144;SDS011;74264;48.988;12.040;2024-01-11T13:11:26;44.92;;;22.30;;
84144;SDS011;74264;48.988;12.040;2024-01-11T13:13:53;43.33;;;20.35;;
84144;SDS011;74264;48.988;12.040;2024-01-11T13:16:19;36.65;;;20.13;;
84144;SDS011;74264;48.988;12.040;2024-01-11T13:18:45;40.58;;;20.10;;
84144;SDS011;74264;48.988;12.040;2024-01-11T13:21:11;40.28;;;21.50;;
84144;SDS011;74264;48.988;12.040;2024-01-11T13:23:37;39.80;;;21.52;;
84144;SDS011;74264;48.988;12.040;2024-01-11T13:26:03;42.90;;;22.33;;
84144;SDS011;74264;48.988;12.040;2024-01-11T13:28:30;39.22;;;20.08;;
84144;SDS011;74264;48.988;12.040;2024-01-11T13:30:56;33.78;;;18.67;;
84144;SDS011;74264;48.988;12.040;2024-01-11T13:33:22;40.67;;;19.25;;
84144;SDS011;74264;48.988;12.040;2024-01-11T13:35:49;38.70;;;21.20;;
84144;SDS011;74264;48.988;12.040;2024-01-11T13:38:14;39.08;;;21.10;;
84144;SDS011;74264;48.988;12.040;2024-01-11T13:40:40;37.03;;;19.27;;
84144;SDS011;74264;48.988;12.040;2024-01-11T13:43:08;41.60;;;20.17;;
84144;SDS011;74264;48.988;12.040;2024-01-11T13:45:34;36.65;;;20.85;;
84144;SDS011;74264;48.988;12.040;2024-01-11T13:48:04;42.70;;;20.80;;
84144;SDS011;74264;48.988;12.040;2024-01-11T13:50:31;39.85;;;20.58;;
84144;SDS011;74264;48.988;12.040;2024-01-11T13:52:57;35.53;;;18.17;;
84144;SDS011;74264;48.988;12.040;2024-01-11T13:55:23;38.22;;;19.08;;
84144;SDS011;74264;48.988;12.040;2024-01-11T13:57:49;37.00;;;19.55;;
84144;SDS011;74264;48.988;12.040;2024-01-11T14:00:16;38.20;;;20.60;;
84144;SDS011;74264;48.988;12.040;2024-01-11T14:02:43;37.15;;;19.33;;
84144;SDS011;74264;48.988;12.040;2024-01-11T14:05:13;33.05;;;18.83;;
84144;SDS011;74264;48.988;12.040;2024-01-11T14:07:40;39.10;;;19.55;;
84144;SDS011;74264;48.988;12.040;2024-01-11T14:10:07;40.22;;;20.00;;
84144;SDS011;74264;48.988;12.040;2024-01-11T14:12:35;40.00;;;19.40;;